sensor_id;sensor_type;location;lat;lon;timestamp;temperature;humidity
14057;DHT22;7103;54.300;10.180;2023-08-17T00:01:44;15.60;1.00
14057;DHT22;7103;54.300;10.180;2023-08-17T00:04:11;15.60;1.00
14057;DHT22;7103;54.300;10.180;2023-08-17T00:06:38;15.50;1.00
14057;DHT22;7103;54.300;10.180;2023-08-17T00:09:05;15.50;1.00
14057;DHT22;7103;54.300;10.180;2023-08-17T00:11:33;15.60;1.00
14057;DHT22;7103;54.300;10.180;2023-08-17T00:14:00;15.60;1.00
14057;DHT22;7103;54.300;10.180;2023-08-17T00:16:27;15.70;1.00
14057;DHT22;7103;54.300;10.180;2023-08-17T00:18:54;15.70;1.00
14057;DHT22;7103;54.300;10.180;2023-08-17T00:21:21;15.90;1.00
14057;DHT22;7103;54.300;10.180;2023-08-17T00:23:48;16.10;1.00
14057;DHT22;7103;54.300;10.180;2023-08-17T00:26:16;16.20;1.00
14057;DHT22;7103;54.300;10.180;2023-08-17T00:28:43;16.20;1.00
14057;DHT22;7103;54.300;10.180;2023-08-17T00:31:11;16.20;1.00
14057;DHT22;7103;54.300;10.180;2023-08-17T00:33:37;16.10;1.00
14057;DHT22;7103;54.300;10.180;2023-08-17T00:36:04;16.10;1.00
14057;DHT22;7103;54.300;10.180;2023-08-17T00:38:32;16.00;1.00
14057;DHT22;7103;54.300;10.180;2023-08-17T00:40:59;16.00;1.00
14057;DHT22;7103;54.300;10.180;2023-08-17T00:43:25;16.00;1.00
14057;DHT22;7103;54.300;10.180;2023-08-17T00:45:53;15.90;1.00
14057;DHT22;7103;54.300;10.180;2023-08-17T00:48:20;16.00;1.00
14057;DHT22;7103;54.300;10.180;2023-08-17T00:50:49;15.90;1.00
14057;DHT22;7103;54.300;10.180;2023-08-17T00:53:17;16.00;1.00
14057;DHT22;7103;54.300;10.180;2023-08-17T00:55:45;15.90;1.00
14057;DHT22;7103;54.300;10.180;2023-08-17T00:58:12;15.80;1.00
14057;DHT22;7103;54.300;10.180;2023-08-17T01:00:40;15.70;1.00
14057;DHT22;7103;54.300;10.180;2023-08-17T01:03:07;15.70;1.00
14057;DHT22;7103;54.300;10.180;2023-08-17T01:05:35;15.60;1.00
14057;DHT22;7103;54.300;10.180;2023-08-17T01:08:03;15.70;1.00
14057;DHT22;7103;54.300;10.180;2023-08-17T01:10:37;15.60;1.00
14057;DHT22;7103;54.300;10.180;2023-08-17T01:13:15;15.50;1.00
14057;DHT22;7103;54.300;10.180;2023-08-17T01:15:51;15.50;1.00
14057;DHT22;7103;54.300;10.180;2023-08-17T01:18:26;15.50;1.00
14057;DHT22;7103;54.300;10.180;2023-08-17T01:20:55;15.50;1.00
14057;DHT22;7103;54.300;10.180;2023-08-17T01:23:23;15.60;1.00
14057;DHT22;7103;54.300;10.180;2023-08-17T01:25:50;15.60;1.00
14057;DHT22;7103;54.300;10.180;2023-08-17T01:28:17;15.60;1.00
14057;DHT22;7103;54.300;10.180;2023-08-17T01:30:55;15.50;1.00
14057;DHT22;7103;54.300;10.180;2023-08-17T01:33:33;15.50;1.00
14057;DHT22;7103;54.300;10.180;2023-08-17T01:36:18;15.50;1.00
14057;DHT22;7103;54.300;10.180;2023-08-17T01:38:46;15.50;1.00
14057;DHT22;7103;54.300;10.180;2023-08-17T01:41:15;15.50;1.00
14057;DHT22;7103;54.300;10.180;2023-08-17T01:43:43;15.60;1.00
14057;DHT22;7103;54.300;10.180;2023-08-17T01:46:15;15.60;1.00
14057;DHT22;7103;54.300;10.180;2023-08-17T01:48:43;15.50;1.00
14057;DHT22;7103;54.300;10.180;2023-08-17T01:51:11;15.60;1.00
14057;DHT22;7103;54.300;10.180;2023-08-17T01:53:38;15.60;1.00
14057;DHT22;7103;54.300;10.180;2023-08-17T01:56:05;15.60;1.00
14057;DHT22;7103;54.300;10.180;2023-08-17T01:58:32;15.70;1.00
14057;DHT22;7103;54.300;10.180;2023-08-17T02:00:59;15.80;1.00
14057;DHT22;7103;54.300;10.180;2023-08-17T02:03:26;15.90;1.00
14057;DHT22;7103;54.300;10.180;2023-08-17T02:05:56;16.00;1.00
14057;DHT22;7103;54.300;10.180;2023-08-17T02:08:23;16.10;1.00
14057;DHT22;7103;54.300;10.180;2023-08-17T02:10:50;16.00;1.00
14057;DHT22;7103;54.300;10.180;2023-08-17T02:13:18;16.00;1.00
14057;DHT22;7103;54.300;10.180;2023-08-17T02:15:46;15.90;1.00
14057;DHT22;7103;54.300;10.180;2023-08-17T02:18:13;16.00;1.00
14057;DHT22;7103;54.300;10.180;2023-08-17T02:20:40;16.10;1.00
14057;DHT22;7103;54.300;10.180;2023-08-17T02:23:07;16.20;1.00
14057;DHT22;7103;54.300;10.180;2023-08-17T02:25:38;16.20;1.00
14057;DHT22;7103;54.300;10.180;2023-08-17T02:28:05;16.20;1.00
14057;DHT22;7103;54.300;10.180;2023-08-17T02:30:32;16.10;1.00
14057;DHT22;7103;54.300;10.180;2023-08-17T02:32:59;16.00;1.00
14057;DHT22;7103;54.300;10.180;2023-08-17T02:35:26;16.00;1.00
14057;DHT22;7103;54.300;10.180;2023-08-17T02:37:53;16.00;1.00
14057;DHT22;7103;54.300;10.180;2023-08-17T02:40:21;16.10;1.00
14057;DHT22;7103;54.300;10.180;2023-08-17T02:42:47;16.20;1.00
14057;DHT22;7103;54.300;10.180;2023-08-17T02:45:14;16.10;1.00
14057;DHT22;7103;54.300;10.180;2023-08-17T02:47:41;16.10;1.00
14057;DHT22;7103;54.300;10.180;2023-08-17T02:50:09;16.00;1.00
14057;DHT22;7103;54.300;10.180;2023-08-17T02:52:36;16.00;1.00
14057;DHT22;7103;54.300;10.180;2023-08-17T02:55:03;16.00;1.00
14057;DHT22;7103;54.300;10.180;2023-08-17T02:57:30;16.10;1.00
14057;DHT22;7103;54.300;10.180;2023-08-17T02:59:57;16.00;1.00
14057;DHT22;7103;54.300;10.180;2023-08-17T03:02:24;15.90;1.00
14057;DHT22;7103;54.300;10.180;2023-08-17T03:04:51;15.90;1.00
14057;DHT22;7103;54.300;10.180;2023-08-17T03:07:18;16.00;1.00
14057;DHT22;7103;54.300;10.180;2023-08-17T03:09:44;16.00;1.00
14057;DHT22;7103;54.300;10.180;2023-08-17T03:12:11;16.00;1.00
14057;DHT22;7103;54.300;10.180;2023-08-17T03:14:38;16.00;1.00
14057;DHT22;7103;54.300;10.180;2023-08-17T03:17:05;16.00;1.00
14057;DHT22;7103;54.300;10.180;2023-08-17T03:19:32;16.20;1.00
14057;DHT22;7103;54.300;10.180;2023-08-17T03:21:59;16.10;1.00
14057;DHT22;7103;54.300;10.180;2023-08-17T03:24:26;16.10;1.00
14057;DHT22;7103;54.300;10.180;2023-08-17T03:26:53;16.00;1.00
14057;DHT22;7103;54.300;10.180;2023-08-17T03:29:19;16.00;1.00
14057;DHT22;7103;54.300;10.180;2023-08-17T03:31:46;16.00;1.00
14057;DHT22;7103;54.300;10.180;2023-08-17T03:34:13;16.00;1.00
14057;DHT22;7103;54.300;10.180;2023-08-17T03:36:40;16.00;1.00
14057;DHT22;7103;54.300;10.180;2023-08-17T03:39:07;16.00;1.00
14057;DHT22;7103;54.300;10.180;2023-08-17T03:41:35;15.90;1.00
14057;DHT22;7103;54.300;10.180;2023-08-17T03:44:03;16.10;1.00
14057;DHT22;7103;54.300;10.180;2023-08-17T03:46:32;16.10;1.00
14057;DHT22;7103;54.300;10.180;2023-08-17T03:49:00;16.20;1.00
14057;DHT22;7103;54.300;10.180;2023-08-17T03:51:27;16.10;1.00
14057;DHT22;7103;54.300;10.180;2023-08-17T03:53:54;16.10;1.00
14057;DHT22;7103;54.300;10.180;2023-08-17T03:56:21;16.10;1.00
14057;DHT22;7103;54.300;10.180;2023-08-17T03:58:49;16.00;1.00
14057;DHT22;7103;54.300;10.180;2023-08-17T04:01:16;16.10;1.00
14057;DHT22;7103;54.300;10.180;2023-08-17T04:03:43;16.10;1.00
14057;DHT22;7103;54.300;10.180;2023-08-17T04:06:10;16.20;1.00
14057;DHT22;7103;54.300;10.180;2023-08-17T04:08:37;16.30;1.00
14057;DHT22;7103;54.300;10.180;2023-08-17T04:11:05;16.20;1.00
14057;DHT22;7103;54.300;10.180;2023-08-17T04:13:32;16.20;1.00
14057;DHT22;7103;54.300;10.180;2023-08-17T04:15:59;16.20;1.00
14057;DHT22;7103;54.300;10.180;2023-08-17T04:18:26;16.20;1.00
14057;DHT22;7103;54.300;10.180;2023-08-17T04:20:53;16.10;1.00
14057;DHT22;7103;54.300;10.180;2023-08-17T04:23:21;16.20;1.00
14057;DHT22;7103;54.300;10.180;2023-08-17T04:25:48;16.20;1.00
14057;DHT22;7103;54.300;10.180;2023-08-17T04:28:15;16.20;1.00
14057;DHT22;7103;54.300;10.180;2023-08-17T04:30:42;16.20;1.00
14057;DHT22;7103;54.300;10.180;2023-08-17T04:33:09;16.20;1.00
14057;DHT22;7103;54.300;10.180;2023-08-17T04:35:36;16.30;1.00
14057;DHT22;7103;54.300;10.180;2023-08-17T04:38:03;16.30;1.00
14057;DHT22;7103;54.300;10.180;2023-08-17T04:40:30;16.30;1.00
14057;DHT22;7103;54.300;10.180;2023-08-17T04:42:58;16.20;1.00
14057;DHT22;7103;54.300;10.180;2023-08-17T04:45:25;16.20;1.00
14057;DHT22;7103;54.300;10.180;2023-08-17T04:47:52;16.20;1.00
14057;DHT22;7103;54.300;10.180;2023-08-17T04:50:19;16.20;1.00
14057;DHT22;7103;54.300;10.180;2023-08-17T04:52:46;16.20;1.00
14057;DHT22;7103;54.300;10.180;2023-08-17T04:55:14;16.20;1.00
14057;DHT22;7103;54.300;10.180;2023-08-17T04:57:41;16.30;1.00
14057;DHT22;7103;54.300;10.180;2023-08-17T05:00:08;16.30;1.00
14057;DHT22;7103;54.300;10.180;2023-08-17T05:02:37;16.30;1.00
14057;DHT22;7103;54.300;10.180;2023-08-17T05:05:05;16.30;1.00
14057;DHT22;7103;54.300;10.180;2023-08-17T05:07:32;16.40;1.00
14057;DHT22;7103;54.300;10.180;2023-08-17T05:10:00;16.40;1.00
14057;DHT22;7103;54.300;10.180;2023-08-17T05:12:27;16.40;1.00
14057;DHT22;7103;54.300;10.180;2023-08-17T05:14:54;16.40;1.00
14057;DHT22;7103;54.300;10.180;2023-08-17T05:17:21;16.50;1.00
14057;DHT22;7103;54.300;10.180;2023-08-17T05:19:48;16.50;1.00
14057;DHT22;7103;54.300;10.180;2023-08-17T05:22:15;16.50;1.00
14057;DHT22;7103;54.300;10.180;2023-08-17T05:24:42;16.60;1.00
14057;DHT22;7103;54.300;10.180;2023-08-17T05:27:09;16.60;1.00
14057;DHT22;7103;54.300;10.180;2023-08-17T05:29:36;16.60;1.00
14057;DHT22;7103;54.300;10.180;2023-08-17T05:32:03;16.70;1.00
14057;DHT22;7103;54.300;10.180;2023-08-17T05:34:31;16.60;1.00
14057;DHT22;7103;54.300;10.180;2023-08-17T05:36:57;16.70;1.00
14057;DHT22;7103;54.300;10.180;2023-08-17T05:39:26;16.80;1.00
14057;DHT22;7103;54.300;10.180;2023-08-17T05:41:53;16.80;1.00
14057;DHT22;7103;54.300;10.180;2023-08-17T05:44:20;16.80;1.00
14057;DHT22;7103;54.300;10.180;2023-08-17T05:46:46;16.80;1.00
14057;DHT22;7103;54.300;10.180;2023-08-17T05:49:15;16.90;1.00
14057;DHT22;7103;54.300;10.180;2023-08-17T05:51:42;16.80;1.00
14057;DHT22;7103;54.300;10.180;2023-08-17T05:54:09;16.90;1.00
14057;DHT22;7103;54.300;10.180;2023-08-17T05:56:35;16.90;1.00
14057;DHT22;7103;54.300;10.180;2023-08-17T05:59:02;16.90;1.00
14057;DHT22;7103;54.300;10.180;2023-08-17T06:01:29;17.00;1.00
14057;DHT22;7103;54.300;10.180;2023-08-17T06:03:57;17.10;1.00
14057;DHT22;7103;54.300;10.180;2023-08-17T06:06:24;17.20;1.00
14057;DHT22;7103;54.300;10.180;2023-08-17T06:08:52;17.20;1.00
14057;DHT22;7103;54.300;10.180;2023-08-17T06:11:19;17.10;1.00
14057;DHT22;7103;54.300;10.180;2023-08-17T06:13:46;17.10;1.00
14057;DHT22;7103;54.300;10.180;2023-08-17T06:16:13;17.20;1.00
14057;DHT22;7103;54.300;10.180;2023-08-17T06:18:40;17.20;1.00
14057;DHT22;7103;54.300;10.180;2023-08-17T06:21:08;17.20;1.00
14057;DHT22;7103;54.300;10.180;2023-08-17T06:23:35;17.20;1.00
14057;DHT22;7103;54.300;10.180;2023-08-17T06:26:02;17.20;1.00
14057;DHT22;7103;54.300;10.180;2023-08-17T06:28:29;17.20;1.00
14057;DHT22;7103;54.300;10.180;2023-08-17T06:30:56;17.30;1.00
14057;DHT22;7103;54.300;10.180;2023-08-17T06:33:24;17.40;1.00
14057;DHT22;7103;54.300;10.180;2023-08-17T06:35:51;17.40;1.00
14057;DHT22;7103;54.300;10.180;2023-08-17T06:38:18;17.40;1.00
14057;DHT22;7103;54.300;10.180;2023-08-17T06:40:45;17.40;1.00
14057;DHT22;7103;54.300;10.180;2023-08-17T06:43:12;17.50;1.00
14057;DHT22;7103;54.300;10.180;2023-08-17T06:45:42;17.50;1.00
14057;DHT22;7103;54.300;10.180;2023-08-17T06:48:09;17.50;1.00
14057;DHT22;7103;54.300;10.180;2023-08-17T06:50:36;17.50;1.00
14057;DHT22;7103;54.300;10.180;2023-08-17T06:53:03;17.60;1.00
14057;DHT22;7103;54.300;10.180;2023-08-17T06:55:29;17.60;1.00
14057;DHT22;7103;54.300;10.180;2023-08-17T06:57:57;17.60;1.00
14057;DHT22;7103;54.300;10.180;2023-08-17T07:00:24;17.50;1.00
14057;DHT22;7103;54.300;10.180;2023-08-17T07:02:51;17.50;1.00
14057;DHT22;7103;54.300;10.180;2023-08-17T07:05:22;17.50;1.00
14057;DHT22;7103;54.300;10.180;2023-08-17T07:07:50;17.60;1.00
14057;DHT22;7103;54.300;10.180;2023-08-17T07:10:17;17.60;1.00
14057;DHT22;7103;54.300;10.180;2023-08-17T07:12:44;17.50;1.00
14057;DHT22;7103;54.300;10.180;2023-08-17T07:15:12;17.50;1.00
14057;DHT22;7103;54.300;10.180;2023-08-17T07:17:39;17.50;1.00
14057;DHT22;7103;54.300;10.180;2023-08-17T07:20:06;17.50;1.00
14057;DHT22;7103;54.300;10.180;2023-08-17T07:22:43;17.50;1.00
14057;DHT22;7103;54.300;10.180;2023-08-17T07:25:10;17.50;1.00
14057;DHT22;7103;54.300;10.180;2023-08-17T07:27:37;17.50;1.00
14057;DHT22;7103;54.300;10.180;2023-08-17T07:30:05;17.60;1.00
14057;DHT22;7103;54.300;10.180;2023-08-17T07:32:32;17.50;1.00
14057;DHT22;7103;54.300;10.180;2023-08-17T07:34:59;17.50;1.00
14057;DHT22;7103;54.300;10.180;2023-08-17T07:37:26;17.40;1.00
14057;DHT22;7103;54.300;10.180;2023-08-17T07:40:00;17.50;1.00
14057;DHT22;7103;54.300;10.180;2023-08-17T07:42:27;17.50;1.00
14057;DHT22;7103;54.300;10.180;2023-08-17T07:44:54;17.50;1.00
14057;DHT22;7103;54.300;10.180;2023-08-17T07:47:21;17.60;1.00
14057;DHT22;7103;54.300;10.180;2023-08-17T07:49:48;17.70;1.00
14057;DHT22;7103;54.300;10.180;2023-08-17T07:52:15;17.70;1.00
14057;DHT22;7103;54.300;10.180;2023-08-17T07:54:43;17.80;1.00
14057;DHT22;7103;54.300;10.180;2023-08-17T07:57:11;17.80;1.00
14057;DHT22;7103;54.300;10.180;2023-08-17T07:59:38;17.80;1.00
14057;DHT22;7103;54.300;10.180;2023-08-17T08:02:05;17.90;1.00
14057;DHT22;7103;54.300;10.180;2023-08-17T08:04:31;18.00;1.00
14057;DHT22;7103;54.300;10.180;2023-08-17T08:06:58;18.00;1.00
14057;DHT22;7103;54.300;10.180;2023-08-17T08:09:25;18.10;1.00
14057;DHT22;7103;54.300;10.180;2023-08-17T08:11:52;18.10;1.00
14057;DHT22;7103;54.300;10.180;2023-08-17T08:14:19;18.30;1.00
14057;DHT22;7103;54.300;10.180;2023-08-17T08:16:46;18.30;1.00
14057;DHT22;7103;54.300;10.180;2023-08-17T08:19:13;18.30;1.00
14057;DHT22;7103;54.300;10.180;2023-08-17T08:21:40;18.30;1.00
14057;DHT22;7103;54.300;10.180;2023-08-17T08:24:07;18.40;1.00
14057;DHT22;7103;54.300;10.180;2023-08-17T08:26:48;18.40;1.00
14057;DHT22;7103;54.300;10.180;2023-08-17T08:29:14;18.50;1.00
14057;DHT22;7103;54.300;10.180;2023-08-17T08:31:41;18.50;1.00
14057;DHT22;7103;54.300;10.180;2023-08-17T08:34:08;18.50;1.00
14057;DHT22;7103;54.300;10.180;2023-08-17T08:36:35;18.50;1.00
14057;DHT22;7103;54.300;10.180;2023-08-17T08:39:02;18.50;1.00
14057;DHT22;7103;54.300;10.180;2023-08-17T08:41:29;18.40;1.00
14057;DHT22;7103;54.300;10.180;2023-08-17T08:43:57;18.50;1.00
14057;DHT22;7103;54.300;10.180;2023-08-17T08:46:26;18.50;1.00
14057;DHT22;7103;54.300;10.180;2023-08-17T08:48:55;18.50;1.00
14057;DHT22;7103;54.300;10.180;2023-08-17T08:51:28;18.50;1.00
14057;DHT22;7103;54.300;10.180;2023-08-17T08:54:02;18.40;1.00
14057;DHT22;7103;54.300;10.180;2023-08-17T08:56:33;18.40;1.00
14057;DHT22;7103;54.300;10.180;2023-08-17T08:59:02;18.40;1.00
14057;DHT22;7103;54.300;10.180;2023-08-17T09:01:32;18.50;1.00
14057;DHT22;7103;54.300;10.180;2023-08-17T09:04:00;18.50;1.00
14057;DHT22;7103;54.300;10.180;2023-08-17T09:06:30;18.30;1.00
14057;DHT22;7103;54.300;10.180;2023-08-17T09:08:58;18.30;1.00
14057;DHT22;7103;54.300;10.180;2023-08-17T09:11:27;18.30;1.00
14057;DHT22;7103;54.300;10.180;2023-08-17T09:13:54;18.30;1.00
14057;DHT22;7103;54.300;10.180;2023-08-17T09:16:21;18.40;1.00
14057;DHT22;7103;54.300;10.180;2023-08-17T09:18:53;18.40;1.00
14057;DHT22;7103;54.300;10.180;2023-08-17T09:21:23;18.30;1.00
14057;DHT22;7103;54.300;10.180;2023-08-17T09:23:51;18.30;1.00
14057;DHT22;7103;54.300;10.180;2023-08-17T09:26:25;18.30;1.00
14057;DHT22;7103;54.300;10.180;2023-08-17T09:28:52;18.40;1.00
14057;DHT22;7103;54.300;10.180;2023-08-17T09:31:24;18.40;1.00
14057;DHT22;7103;54.300;10.180;2023-08-17T09:33:51;18.30;1.00
14057;DHT22;7103;54.300;10.180;2023-08-17T09:36:22;18.30;1.00
14057;DHT22;7103;54.300;10.180;2023-08-17T09:38:51;18.20;1.00
14057;DHT22;7103;54.300;10.180;2023-08-17T09:41:18;18.20;1.00
14057;DHT22;7103;54.300;10.180;2023-08-17T09:43:46;18.20;1.00
14057;DHT22;7103;54.300;10.180;2023-08-17T09:46:14;18.20;1.00
14057;DHT22;7103;54.300;10.180;2023-08-17T09:48:43;18.20;1.00
14057;DHT22;7103;54.300;10.180;2023-08-17T09:51:17;18.10;1.00
14057;DHT22;7103;54.300;10.180;2023-08-17T09:53:44;18.10;1.00
14057;DHT22;7103;54.300;10.180;2023-08-17T09:56:12;18.10;1.00
14057;DHT22;7103;54.300;10.180;2023-08-17T09:58:42;18.20;1.00
14057;DHT22;7103;54.300;10.180;2023-08-17T10:01:09;18.20;1.00
14057;DHT22;7103;54.300;10.180;2023-08-17T10:03:39;18.20;1.00
14057;DHT22;7103;54.300;10.180;2023-08-17T10:06:10;18.10;1.00
14057;DHT22;7103;54.300;10.180;2023-08-17T10:08:46;18.20;1.00
14057;DHT22;7103;54.300;10.180;2023-08-17T10:11:18;18.10;1.00
14057;DHT22;7103;54.300;10.180;2023-08-17T10:13:57;18.10;1.00
14057;DHT22;7103;54.300;10.180;2023-08-17T10:16:29;18.20;1.00
14057;DHT22;7103;54.300;10.180;2023-08-17T10:22:06;18.20;1.00
14057;DHT22;7103;54.300;10.180;2023-08-17T10:24:35;18.10;1.00
14057;DHT22;7103;54.300;10.180;2023-08-17T10:27:05;18.10;1.00
14057;DHT22;7103;54.300;10.180;2023-08-17T10:29:33;18.10;1.00
14057;DHT22;7103;54.300;10.180;2023-08-17T10:32:01;18.10;1.00
14057;DHT22;7103;54.300;10.180;2023-08-17T10:34:29;18.10;1.00
14057;DHT22;7103;54.300;10.180;2023-08-17T10:36:56;18.10;1.00
14057;DHT22;7103;54.300;10.180;2023-08-17T10:39:28;18.10;1.00
14057;DHT22;7103;54.300;10.180;2023-08-17T10:41:57;18.20;1.00
14057;DHT22;7103;54.300;10.180;2023-08-17T10:47:32;18.30;1.00
14057;DHT22;7103;54.300;10.180;2023-08-17T10:50:21;18.40;1.00
14057;DHT22;7103;54.300;10.180;2023-08-17T10:52:49;18.40;1.00
14057;DHT22;7103;54.300;10.180;2023-08-17T10:55:17;18.40;1.00
14057;DHT22;7103;54.300;10.180;2023-08-17T10:57:46;18.50;1.00
14057;DHT22;7103;54.300;10.180;2023-08-17T11:00:22;18.40;1.00
14057;DHT22;7103;54.300;10.180;2023-08-17T11:03:04;18.40;1.00
14057;DHT22;7103;54.300;10.180;2023-08-17T11:05:45;18.40;1.00
14057;DHT22;7103;54.300;10.180;2023-08-17T11:08:37;18.40;1.00
14057;DHT22;7103;54.300;10.180;2023-08-17T11:11:12;18.30;1.00
14057;DHT22;7103;54.300;10.180;2023-08-17T11:13:41;18.30;1.00
14057;DHT22;7103;54.300;10.180;2023-08-17T11:16:09;18.30;1.00
14057;DHT22;7103;54.300;10.180;2023-08-17T11:18:37;18.30;1.00
14057;DHT22;7103;54.300;10.180;2023-08-17T11:21:08;18.40;1.00
14057;DHT22;7103;54.300;10.180;2023-08-17T11:23:38;18.40;1.00
14057;DHT22;7103;54.300;10.180;2023-08-17T11:26:05;18.40;1.00
14057;DHT22;7103;54.300;10.180;2023-08-17T11:28:33;18.50;1.00
14057;DHT22;7103;54.300;10.180;2023-08-17T11:31:09;18.50;1.00
14057;DHT22;7103;54.300;10.180;2023-08-17T11:33:37;18.50;1.00
14057;DHT22;7103;54.300;10.180;2023-08-17T11:36:06;18.50;1.00
14057;DHT22;7103;54.300;10.180;2023-08-17T11:38:38;18.50;1.00
14057;DHT22;7103;54.300;10.180;2023-08-17T11:41:06;18.50;1.00
14057;DHT22;7103;54.300;10.180;2023-08-17T11:43:37;18.60;1.00
14057;DHT22;7103;54.300;10.180;2023-08-17T11:46:04;18.80;1.00
14057;DHT22;7103;54.300;10.180;2023-08-17T11:48:32;18.90;1.00
14057;DHT22;7103;54.300;10.180;2023-08-17T11:51:02;18.90;1.00
14057;DHT22;7103;54.300;10.180;2023-08-17T11:53:38;19.00;1.00
14057;DHT22;7103;54.300;10.180;2023-08-17T11:56:06;18.90;1.00
14057;DHT22;7103;54.300;10.180;2023-08-17T11:58:46;18.90;1.00
14057;DHT22;7103;54.300;10.180;2023-08-17T12:01:13;19.00;1.00
14057;DHT22;7103;54.300;10.180;2023-08-17T12:03:44;19.00;1.00
14057;DHT22;7103;54.300;10.180;2023-08-17T12:06:11;19.10;1.00
14057;DHT22;7103;54.300;10.180;2023-08-17T12:08:44;19.00;1.00
14057;DHT22;7103;54.300;10.180;2023-08-17T12:11:13;19.10;1.00
14057;DHT22;7103;54.300;10.180;2023-08-17T12:13:42;19.20;1.00
14057;DHT22;7103;54.300;10.180;2023-08-17T12:16:14;19.20;1.00
14057;DHT22;7103;54.300;10.180;2023-08-17T12:18:53;19.10;1.00
14057;DHT22;7103;54.300;10.180;2023-08-17T12:21:23;19.00;1.00
14057;DHT22;7103;54.300;10.180;2023-08-17T12:23:51;18.90;1.00
14057;DHT22;7103;54.300;10.180;2023-08-17T12:26:19;18.90;1.00
14057;DHT22;7103;54.300;10.180;2023-08-17T12:28:46;18.80;1.00
14057;DHT22;7103;54.300;10.180;2023-08-17T12:31:13;18.80;1.00
14057;DHT22;7103;54.300;10.180;2023-08-17T12:33:40;18.90;1.00
14057;DHT22;7103;54.300;10.180;2023-08-17T12:36:07;19.00;1.00
14057;DHT22;7103;54.300;10.180;2023-08-17T12:38:34;19.00;1.00
14057;DHT22;7103;54.300;10.180;2023-08-17T12:41:01;19.20;1.00
14057;DHT22;7103;54.300;10.180;2023-08-17T12:43:32;19.20;1.00
14057;DHT22;7103;54.300;10.180;2023-08-17T12:45:59;19.20;1.00
14057;DHT22;7103;54.300;10.180;2023-08-17T12:48:26;19.20;1.00
14057;DHT22;7103;54.300;10.180;2023-08-17T12:50:53;19.10;1.00
14057;DHT22;7103;54.300;10.180;2023-08-17T12:53:20;19.20;1.00
14057;DHT22;7103;54.300;10.180;2023-08-17T12:55:47;19.30;1.00
14057;DHT22;7103;54.300;10.180;2023-08-17T12:58:14;19.20;1.00
14057;DHT22;7103;54.300;10.180;2023-08-17T13:00:41;19.30;1.00
14057;DHT22;7103;54.300;10.180;2023-08-17T13:03:07;19.20;1.00
14057;DHT22;7103;54.300;10.180;2023-08-17T13:05:36;19.10;1.00
14057;DHT22;7103;54.300;10.180;2023-08-17T13:08:03;19.10;1.00
14057;DHT22;7103;54.300;10.180;2023-08-17T13:10:30;19.10;1.00
14057;DHT22;7103;54.300;10.180;2023-08-17T13:12:57;19.10;1.00
14057;DHT22;7103;54.300;10.180;2023-08-17T13:15:26;18.90;1.00
14057;DHT22;7103;54.300;10.180;2023-08-17T13:17:53;18.90;1.00
14057;DHT22;7103;54.300;10.180;2023-08-17T13:20:20;18.90;1.00
14057;DHT22;7103;54.300;10.180;2023-08-17T13:22:47;18.90;1.00
14057;DHT22;7103;54.300;10.180;2023-08-17T13:25:14;18.80;1.00
14057;DHT22;7103;54.300;10.180;2023-08-17T13:27:41;18.80;1.00
14057;DHT22;7103;54.300;10.180;2023-08-17T13:30:08;18.80;1.00
14057;DHT22;7103;54.300;10.180;2023-08-17T13:32:39;18.80;1.00
14057;DHT22;7103;54.300;10.180;2023-08-17T13:35:07;18.80;1.00
14057;DHT22;7103;54.300;10.180;2023-08-17T13:37:37;18.70;1.00
14057;DHT22;7103;54.300;10.180;2023-08-17T13:40:04;18.80;1.00
14057;DHT22;7103;54.300;10.180;2023-08-17T13:42:31;18.60;1.00
14057;DHT22;7103;54.300;10.180;2023-08-17T13:44:58;18.60;1.00
14057;DHT22;7103;54.300;10.180;2023-08-17T13:47:25;18.60;1.00
14057;DHT22;7103;54.300;10.180;2023-08-17T13:49:52;18.50;1.00
14057;DHT22;7103;54.300;10.180;2023-08-17T13:52:19;18.60;1.00
14057;DHT22;7103;54.300;10.180;2023-08-17T13:54:45;18.50;1.00
14057;DHT22;7103;54.300;10.180;2023-08-17T13:57:12;18.60;1.00
14057;DHT22;7103;54.300;10.180;2023-08-17T13:59:39;18.50;1.00
14057;DHT22;7103;54.300;10.180;2023-08-17T14:02:07;18.50;1.00
14057;DHT22;7103;54.300;10.180;2023-08-17T14:04:34;18.50;1.00
14057;DHT22;7103;54.300;10.180;2023-08-17T14:07:00;18.50;1.00
14057;DHT22;7103;54.300;10.180;2023-08-17T14:09:27;18.50;1.00
14057;DHT22;7103;54.300;10.180;2023-08-17T14:11:54;18.40;1.00
14057;DHT22;7103;54.300;10.180;2023-08-17T14:14:21;18.40;1.00
14057;DHT22;7103;54.300;10.180;2023-08-17T14:16:48;18.50;1.00
14057;DHT22;7103;54.300;10.180;2023-08-17T14:19:15;18.50;1.00
14057;DHT22;7103;54.300;10.180;2023-08-17T14:21:42;18.50;1.00
14057;DHT22;7103;54.300;10.180;2023-08-17T14:24:09;18.60;1.00
14057;DHT22;7103;54.300;10.180;2023-08-17T14:26:36;18.60;1.00
14057;DHT22;7103;54.300;10.180;2023-08-17T14:29:03;18.50;1.00
14057;DHT22;7103;54.300;10.180;2023-08-17T14:31:30;18.50;1.00
14057;DHT22;7103;54.300;10.180;2023-08-17T14:33:57;18.60;1.00
14057;DHT22;7103;54.300;10.180;2023-08-17T14:36:24;18.50;1.00
14057;DHT22;7103;54.300;10.180;2023-08-17T14:38:51;18.50;1.00
14057;DHT22;7103;54.300;10.180;2023-08-17T14:41:17;18.50;1.00
14057;DHT22;7103;54.300;10.180;2023-08-17T14:43:44;18.50;1.00
14057;DHT22;7103;54.300;10.180;2023-08-17T14:46:11;18.40;1.00
14057;DHT22;7103;54.300;10.180;2023-08-17T14:48:41;18.40;1.00
14057;DHT22;7103;54.300;10.180;2023-08-17T14:51:08;18.40;31.50
14057;DHT22;7103;54.300;10.180;2023-08-17T14:53:35;18.40;70.00
14057;DHT22;7103;54.300;10.180;2023-08-17T14:56:05;18.40;87.70
14057;DHT22;7103;54.300;10.180;2023-08-17T14:58:32;18.30;99.90
14057;DHT22;7103;54.300;10.180;2023-08-17T15:00:59;18.40;99.90
14057;DHT22;7103;54.300;10.180;2023-08-17T15:03:26;18.40;99.90
14057;DHT22;7103;54.300;10.180;2023-08-17T15:05:53;18.40;99.90
14057;DHT22;7103;54.300;10.180;2023-08-17T15:08:20;18.40;99.90
14057;DHT22;7103;54.300;10.180;2023-08-17T15:10:47;18.30;99.90
14057;DHT22;7103;54.300;10.180;2023-08-17T15:13:15;18.30;99.90
14057;DHT22;7103;54.300;10.180;2023-08-17T15:15:42;18.40;99.90
14057;DHT22;7103;54.300;10.180;2023-08-17T15:18:10;18.40;99.90
14057;DHT22;7103;54.300;10.180;2023-08-17T15:20:37;18.40;99.90
14057;DHT22;7103;54.300;10.180;2023-08-17T15:23:04;18.30;99.90
14057;DHT22;7103;54.300;10.180;2023-08-17T15:25:31;18.30;99.90
14057;DHT22;7103;54.300;10.180;2023-08-17T15:27:58;18.40;99.90
14057;DHT22;7103;54.300;10.180;2023-08-17T15:30:25;18.30;99.90
14057;DHT22;7103;54.300;10.180;2023-08-17T15:32:52;18.30;99.90
14057;DHT22;7103;54.300;10.180;2023-08-17T15:35:19;18.40;99.90
14057;DHT22;7103;54.300;10.180;2023-08-17T15:37:46;18.40;99.90
14057;DHT22;7103;54.300;10.180;2023-08-17T15:40:13;18.40;99.90
14057;DHT22;7103;54.300;10.180;2023-08-17T15:42:40;18.30;99.90
14057;DHT22;7103;54.300;10.180;2023-08-17T15:45:07;18.20;99.90
14057;DHT22;7103;54.300;10.180;2023-08-17T15:47:34;18.20;99.90
14057;DHT22;7103;54.300;10.180;2023-08-17T15:50:01;18.10;99.90
14057;DHT22;7103;54.300;10.180;2023-08-17T15:52:28;18.10;99.90
14057;DHT22;7103;54.300;10.180;2023-08-17T15:54:55;18.10;99.90
14057;DHT22;7103;54.300;10.180;2023-08-17T15:57:22;18.10;99.90